Details From EBAW - Antwerpen Deurne
To EGNM - Leeds Bradford
Flight Number -
Tags Generated
Created
Modified
Stats Distance 276 nm / 510 km
Max Altitude 0 ft / 0 m
Waypoints 3
Social Downloads 1
Likes 0
Share VATSIM

Download

Looking for another format? Having issues loading an existing format? Contact us
Advertisement - Login to hide

Notes

Generated

Route

EBAW LBA EGNM

ID Type Via Altitude Latitude Longitude Leg Dist Tot Dist Heading (true) Name
O EBAW APT - 0 ft / 0 m 51.19237˚ 4.45277˚ - 0 nm - -
LBA NDB - 0 ft / 0 m 53.86499˚ -1.65289˚ 274 nm 274 nm 308° / 303° LEEDS BRADFORD NDB
O EGNM APT - 0 ft / 0 m 53.87335˚ -1.67205˚ 0 nm 275 nm 307° / 306° -

Altitude Profile

Advertisement - Login to hide

Weather


0- 5 10 15 20 25 30 35+ Temperature / ° C

Clouds and Precipitation
Forecast for 2018-05-26 18:00 UTC. Updated 3 hours ago

Ground ~20,000 ft ~40,000 ft Winds

EBAW

Details ICAO EBAW (ANR)
Name Antwerp Deurne
Region Belgium
Timezone Europe/Brussels (UTC+2.0)
Stats Elevation 39 ft / 12 m (AMSL)
Location 51.190654° 4.463776°
Runways 2
Magnetic Variation 1.160° E

METAR

EBAW 261950Z 07006KT CAVOK 25/15 Q1018 NOSIG

Decode

TAF

Not found

Departure Runways

ID Width Length Bearing (true) Bearing (mag) Surface Threshold Offset Overrun Length
11 148 ft / 45 m 4,931 ft / 1,503 m 109.83° 108.67° Asphalt 472 ft / 144 m 0 ft / 0 m
11L 164 ft / 50 m 3,317 ft / 1,011 m 109.83° 108.67° Grass 0 ft / 0 m 0 ft / 0 m
29 148 ft / 45 m 4,931 ft / 1,503 m 289.85° 288.69° Asphalt 400 ft / 122 m 0 ft / 0 m
29R 164 ft / 50 m 3,317 ft / 1,011 m 289.85° 288.69° Grass 0 ft / 0 m 0 ft / 0 m

EGNM

Details ICAO EGNM (LBA)
Name Leeds Bradford
Region United Kingdom
Timezone Europe/London (UTC+1.0)
Stats Elevation 681 ft / 208 m (AMSL)
Location 53.866027° -1.660778°
Runways 1
Magnetic Variation 1.228° W

METAR

EGNM 262020Z 03010KT 350V070 8000 FEW005 12/10 Q1024

Decode

TAF

TAF EGNM 261706Z 2618/2718 05010KT 9999 FEW040 TEMPO 2622/2708 7000 PROB40 TEMPO 2700/2707 BKN006

Decode

Destination Runways

ID Width Length Bearing (true) Bearing (mag) Surface Threshold Offset Overrun Length
14 151 ft / 46 m 7,377 ft / 2,248 m 137.79° 139.02° Concrete 1,024 ft / 312 m 46 ft / 14 m
32 151 ft / 46 m 7,377 ft / 2,248 m 317.81° 319.04° Concrete 899 ft / 274 m 49 ft / 15 m

Approach Navaids

Runway Type Ident Frequency Range Bearing (true) Bearing (mag) Slope Elevation
14 Localiser ILBF 110.90 MHz 18 nm / 33 km 137.73° 138.95° - 681 ft / 208 m (AMSL)
14 Glidescope ILBF 110.90 MHz 10 nm / 19 km 137.80° 139.02° 3.50° 681 ft / 208 m (AMSL)
14 DME ILBF 110.90 MHz 18 nm / 33 km - - - 681 ft / 208 m (AMSL)
32 Localiser ILF 110.90 MHz 18 nm / 33 km 317.80° 319.02° - 681 ft / 208 m (AMSL)
32 Glidescope ILF 110.90 MHz 10 nm / 19 km 317.80° 319.02° 3.00° 681 ft / 208 m (AMSL)
32 DME ILF 110.90 MHz 18 nm / 33 km - - - 687 ft / 209 m (AMSL)